Chimaera — SD9467 — position and weather

sailwx.info

Track history (hours):
 
Tides and Currents Weather Stations Pressure Air Temp Water Temp Dewpoint Dewpoint Depression Visibility Wind Speed Wind Dir Waves Ship Positions

Chimaera

Last reported at 2018-May-18 19:08 UTC. Time now 2018-May-22 15:31 UTC.
Position N 39°11' W 009°28'.

Length 12 m.

Type: Pleasure craft. MMSI: 265704170.

Date/timePositionNaut miles runAvg speedWind from/ knotsBaromVisibWave heightAir tempDewpointWater temp
2018-May-18 19:08N 39°11' W 009°28'1 5.7
2018-May-18 18:55N 39°10' W 009°28'2 5.9
2018-May-18 18:30N 39°08' W 009°28'3 6.3
2018-May-18 18:01N 39°05' W 009°29'3 6.1
2018-May-18 17:31N 39°02' W 009°29'3 5.8
2018-May-18 17:00N 38°59' W 009°29'3 5.9
2018-May-18 16:30N 38°56' W 009°29'3 5.5
2018-May-18 16:00N 38°53' W 009°30'3 5.8
2018-May-18 15:30N 38°50' W 009°30'3 6.1
2018-May-18 15:00N 38°47' W 009°30'4 6.3
2018-May-18 14:26N 38°44' W 009°30'3 5.6
2018-May-18 13:58N 38°42' W 009°28'3 5.5
2018-May-18 13:26N 38°41' W 009°24'2 5.0
2018-May-18 12:59N 38°41' W 009°21'2 0.8
2018-May-18 10:55N 38°41' W 009°19'0 0.1
2018-May-18 10:18N 38°41' W 009°19'0 0.0
2018-May-18 10:00N 38°41' W 009°19'2 4.5
2018-May-18 09:30N 38°38' W 009°18'3 5.9
2018-May-18 09:00N 38°36' W 009°17'3 5.8
2018-May-18 08:29N 38°33' W 009°17'3 5.6
2018-May-18 07:59N 38°30' W 009°17'3 5.6
2018-May-18 07:26N 38°27' W 009°17'3 5.4
2018-May-18 06:57N 38°24' W 009°16'3 5.2
2018-May-18 06:28N 38°22' W 009°15'3 5.1
2018-May-18 05:52N 38°19' W 009°14'2 5.0
2018-May-18 05:25N 38°17' W 009°13'3 5.0
2018-May-18 04:51N 38°14' W 009°12'2 4.9
2018-May-18 04:21N 38°12' W 009°11'2 4.5
2018-May-18 03:59N 38°10' W 009°10'2 4.9
2018-May-18 03:30N 38°08' W 009°09'2 4.8
2018-May-18 03:00N 38°06' W 009°07'2 4.6
2018-May-18 02:29N 38°04' W 009°06'2 4.7
2018-May-18 02:00N 38°02' W 009°05'3 5.1
2018-May-18 01:30N 37°59' W 009°05'3 5.7
2018-May-18 01:00N 37°56' W 009°06'3 5.5
2018-May-18 00:30N 37°54' W 009°05'3 5.4
2018-May-18 00:00N 37°51' W 009°05'3 5.5
2018-May-17 23:28N 37°48' W 009°04'3 5.4
2018-May-17 23:00N 37°45' W 009°04'3 5.4
2018-May-17 22:28N 37°42' W 009°04'3 5.2
2018-May-17 21:58N 37°40' W 009°04'40 3.8
2018-May-17 11:30N 37°04' W 008°40'2 0.1
2018-May-16 17:13N 37°07' W 008°41'0 0.0
2018-May-16 16:49N 37°07' W 008°41'0 0.0
2018-May-16 03:37N 37°07' W 008°41'0 0.0
2018-May-16 03:25N 37°07' W 008°41'  
2018-May-12 00:50N 37°07' W 008°41'0 0.0
2018-May-11 11:44N 37°07' W 008°41'0 0.0
2018-May-11 11:20N 37°07' W 008°41'0 0.0
2018-May-11 00:08N 37°07' W 008°41'0 0.0
2018-May-10 22:50N 37°07' W 008°41'  
Track history (hours):
 
Tides and Currents Weather Stations Pressure Air Temp Water Temp Dewpoint Dewpoint Depression Visibility Wind Speed Wind Dir Waves Ship Positions

Chimaera

Last reported at 2018-May-18 19:08 UTC. Time now 2018-May-22 15:31 UTC.
Position N 39°11' W 009°28'.

Length 12 m.

Type: Pleasure craft. MMSI: 265704170.

Date/timePositionNaut miles runAvg speedWind from/ knotsBaromVisibWave heightAir tempDewpointWater temp
2018-May-18 19:08N 39°11' W 009°28'1 5.7
2018-May-18 18:55N 39°10' W 009°28'2 5.9
2018-May-18 18:30N 39°08' W 009°28'3 6.3
2018-May-18 18:01N 39°05' W 009°29'3 6.1
2018-May-18 17:31N 39°02' W 009°29'3 5.8
2018-May-18 17:00N 38°59' W 009°29'3 5.9
2018-May-18 16:30N 38°56' W 009°29'3 5.5
2018-May-18 16:00N 38°53' W 009°30'3 5.8
2018-May-18 15:30N 38°50' W 009°30'3 6.1
2018-May-18 15:00N 38°47' W 009°30'4 6.3
2018-May-18 14:26N 38°44' W 009°30'3 5.6
2018-May-18 13:58N 38°42' W 009°28'3 5.5
2018-May-18 13:26N 38°41' W 009°24'2 5.0
2018-May-18 12:59N 38°41' W 009°21'2 0.8
2018-May-18 10:55N 38°41' W 009°19'0 0.1
2018-May-18 10:18N 38°41' W 009°19'0 0.0
2018-May-18 10:00N 38°41' W 009°19'2 4.5
2018-May-18 09:30N 38°38' W 009°18'3 5.9
2018-May-18 09:00N 38°36' W 009°17'3 5.8
2018-May-18 08:29N 38°33' W 009°17'3 5.6
2018-May-18 07:59N 38°30' W 009°17'3 5.6
2018-May-18 07:26N 38°27' W 009°17'3 5.4
2018-May-18 06:57N 38°24' W 009°16'3 5.2
2018-May-18 06:28N 38°22' W 009°15'3 5.1
2018-May-18 05:52N 38°19' W 009°14'2 5.0
2018-May-18 05:25N 38°17' W 009°13'3 5.0
2018-May-18 04:51N 38°14' W 009°12'2 4.9
2018-May-18 04:21N 38°12' W 009°11'2 4.5
2018-May-18 03:59N 38°10' W 009°10'2 4.9
2018-May-18 03:30N 38°08' W 009°09'2 4.8
2018-May-18 03:00N 38°06' W 009°07'2 4.6
2018-May-18 02:29N 38°04' W 009°06'2 4.7
2018-May-18 02:00N 38°02' W 009°05'3 5.1
2018-May-18 01:30N 37°59' W 009°05'3 5.7
2018-May-18 01:00N 37°56' W 009°06'3 5.5
2018-May-18 00:30N 37°54' W 009°05'3 5.4
2018-May-18 00:00N 37°51' W 009°05'3 5.5
2018-May-17 23:28N 37°48' W 009°04'3 5.4
2018-May-17 23:00N 37°45' W 009°04'3 5.4
2018-May-17 22:28N 37°42' W 009°04'3 5.2
2018-May-17 21:58N 37°40' W 009°04'40 3.8
2018-May-17 11:30N 37°04' W 008°40'2 0.1
2018-May-16 17:13N 37°07' W 008°41'0 0.0
2018-May-16 16:49N 37°07' W 008°41'0 0.0
2018-May-16 03:37N 37°07' W 008°41'0 0.0
2018-May-16 03:25N 37°07' W 008°41'  
2018-May-12 00:50N 37°07' W 008°41'0 0.0
2018-May-11 11:44N 37°07' W 008°41'0 0.0
2018-May-11 11:20N 37°07' W 008°41'0 0.0
2018-May-11 00:08N 37°07' W 008°41'0 0.0
2018-May-10 22:50N 37°07' W 008°41'  

Dump ship's entire track history